createdAt,value
2019-03-29T00:02:07.470Z,47.50
2019-03-29T00:04:35.755Z,45.93
2019-03-29T00:07:04.278Z,53.40
2019-03-29T00:09:32.632Z,55.27
2019-03-29T00:12:00.916Z,57.63
2019-03-29T00:14:29.236Z,50.80
2019-03-29T00:16:57.534Z,42.77
2019-03-29T00:19:25.857Z,52.80
2019-03-29T00:21:54.103Z,45.33
2019-03-29T00:24:22.378Z,42.37
2019-03-29T00:26:50.957Z,39.57
2019-03-29T00:29:19.234Z,48.37
2019-03-29T00:31:47.538Z,40.33
2019-03-29T00:34:16.033Z,41.67
2019-03-29T00:36:44.512Z,43.97
2019-03-29T00:39:12.807Z,41.27
2019-03-29T00:41:41.098Z,42.17
2019-03-29T00:44:09.367Z,37.83
2019-03-29T00:46:37.902Z,42.77
2019-03-29T00:49:06.149Z,39.27
2019-03-29T00:51:34.490Z,37.90
2019-03-29T00:54:02.733Z,37.27
2019-03-29T00:56:31.013Z,36.57
2019-03-29T00:58:59.358Z,42.20
2019-03-29T01:01:27.663Z,40.47
2019-03-29T01:03:55.935Z,43.73
2019-03-29T01:06:24.225Z,43.03
2019-03-29T01:08:52.554Z,48.20
2019-03-29T01:11:20.860Z,38.93
2019-03-29T01:13:49.107Z,41.37
2019-03-29T01:16:17.486Z,38.37
2019-03-29T01:18:45.789Z,45.83
2019-03-29T01:21:14.075Z,46.10
2019-03-29T01:23:42.548Z,53.13
2019-03-29T01:26:10.860Z,44.70
2019-03-29T01:28:39.100Z,46.77
2019-03-29T01:31:08.192Z,44.07
2019-03-29T01:33:36.475Z,45.57
2019-03-29T01:36:04.769Z,45.47
2019-03-29T01:38:33.070Z,52.80
2019-03-29T01:41:01.381Z,46.87
2019-03-29T01:43:29.649Z,51.17
2019-03-29T01:45:57.927Z,45.33
2019-03-29T01:48:26.232Z,48.73
2019-03-29T01:50:54.583Z,52.73
2019-03-29T01:53:28.618Z,56.63
2019-03-29T01:55:56.900Z,52.83
2019-03-29T01:58:25.408Z,53.93
2019-03-29T02:00:53.682Z,53.63
2019-03-29T02:03:21.982Z,54.70
2019-03-29T02:05:50.282Z,50.60
2019-03-29T02:08:18.535Z,60.33
2019-03-29T02:10:46.879Z,60.07
2019-03-29T02:13:15.206Z,60.07
2019-03-29T02:15:43.442Z,66.60
2019-03-29T02:18:11.788Z,67.00
2019-03-29T02:20:40.086Z,63.50
2019-03-29T02:23:08.347Z,62.90
2019-03-29T02:25:36.587Z,68.37
2019-03-29T02:28:04.847Z,70.07
2019-03-29T02:30:33.478Z,71.10
2019-03-29T02:33:01.880Z,68.07
2019-03-29T02:35:30.058Z,71.90
2019-03-29T02:37:58.364Z,72.33
2019-03-29T02:40:26.647Z,69.83
2019-03-29T02:42:54.961Z,73.13
2019-03-29T02:45:23.271Z,73.03
2019-03-29T02:47:51.572Z,75.37
2019-03-29T02:50:19.896Z,70.37
2019-03-29T02:52:48.130Z,67.43
2019-03-29T02:55:16.470Z,69.50
2019-03-29T02:57:44.733Z,68.23
2019-03-29T03:00:13.076Z,75.33
2019-03-29T03:02:41.351Z,77.90
2019-03-29T03:05:09.915Z,73.87
2019-03-29T03:07:38.232Z,71.03
2019-03-29T03:10:07.936Z,72.33
2019-03-29T03:12:36.300Z,70.23
2019-03-29T03:15:04.574Z,75.67
2019-03-29T03:17:32.858Z,71.57
2019-03-29T03:20:01.422Z,76.07
2019-03-29T03:22:29.851Z,74.67
2019-03-29T03:24:58.086Z,67.50
2019-03-29T03:27:26.393Z,70.57
2019-03-29T03:29:54.700Z,68.37
2019-03-29T03:32:23.155Z,84.60
2019-03-29T03:34:51.614Z,72.97
2019-03-29T03:37:19.841Z,76.20
2019-03-29T03:39:48.189Z,77.20
2019-03-29T03:42:16.463Z,80.20
2019-03-29T03:44:44.756Z,83.87
2019-03-29T03:47:13.038Z,77.33
2019-03-29T03:49:41.342Z,76.77
2019-03-29T03:52:09.590Z,76.20
2019-03-29T03:54:37.967Z,77.47
2019-03-29T03:57:06.345Z,74.57
2019-03-29T03:59:34.693Z,75.47
2019-03-29T04:02:02.949Z,74.77
2019-03-29T04:04:31.328Z,76.53
2019-03-29T04:06:59.629Z,74.87
2019-03-29T04:09:27.934Z,76.87
2019-03-29T04:11:56.331Z,72.87
2019-03-29T04:14:24.643Z,74.87
2019-03-29T04:16:53.090Z,79.53
2019-03-29T04:19:22.388Z,81.43
2019-03-29T04:21:51.209Z,78.67
2019-03-29T04:24:19.787Z,75.73
2019-03-29T04:26:48.061Z,80.87
2019-03-29T04:29:16.390Z,76.00
2019-03-29T04:31:44.743Z,82.70
2019-03-29T04:34:13.175Z,82.43
2019-03-29T04:36:41.727Z,86.33
2019-03-29T04:39:10.055Z,80.03
2019-03-29T04:41:38.335Z,81.23
2019-03-29T04:44:06.604Z,77.27
2019-03-29T04:46:34.869Z,74.40
2019-03-29T04:49:03.152Z,71.27
2019-03-29T04:51:31.403Z,68.70
2019-03-29T04:53:59.696Z,75.67
2019-03-29T04:56:28.086Z,69.50
2019-03-29T04:58:58.070Z,62.63
2019-03-29T05:01:26.380Z,69.33
2019-03-29T05:03:55.619Z,69.83
2019-03-29T05:06:24.870Z,69.70
2019-03-29T05:08:53.113Z,65.47
2019-03-29T05:11:21.327Z,64.37
2019-03-29T05:13:49.639Z,68.20
2019-03-29T05:16:17.899Z,65.43
2019-03-29T05:18:51.584Z,67.93
2019-03-29T05:21:20.193Z,66.40
2019-03-29T05:23:48.472Z,62.07
2019-03-29T05:26:16.884Z,64.27
2019-03-29T05:28:45.115Z,61.27
2019-03-29T05:31:13.378Z,69.13
2019-03-29T05:33:41.661Z,68.40
2019-03-29T05:36:09.950Z,66.10
2019-03-29T05:38:38.246Z,90.63
2019-03-29T05:41:07.542Z,63.93
2019-03-29T05:43:35.976Z,63.70
2019-03-29T05:46:04.304Z,61.23
2019-03-29T05:48:32.633Z,57.23
2019-03-29T05:51:01.867Z,56.17
2019-03-29T05:53:30.239Z,56.47
2019-03-29T05:55:58.566Z,58.93
2019-03-29T05:58:26.918Z,60.33
2019-03-29T06:00:55.216Z,52.17
2019-03-29T06:03:23.729Z,56.30
2019-03-29T06:05:52.030Z,56.37
2019-03-29T06:08:20.403Z,52.33
2019-03-29T06:10:49.679Z,56.13
2019-03-29T06:13:18.188Z,49.57
2019-03-29T06:15:46.539Z,52.93
2019-03-29T06:18:17.055Z,48.07
2019-03-29T06:20:45.389Z,52.40
2019-03-29T06:23:13.680Z,50.40
2019-03-29T06:25:42.040Z,53.03
2019-03-29T06:28:10.369Z,44.88
2019-03-29T06:30:38.664Z,53.60
2019-03-29T06:33:06.964Z,43.60
2019-03-29T06:35:37.138Z,45.40
2019-03-29T06:38:05.988Z,44.03
2019-03-29T06:40:34.317Z,47.58
2019-03-29T06:43:02.972Z,42.87
2019-03-29T06:45:31.296Z,45.23
2019-03-29T06:48:02.520Z,47.53
2019-03-29T06:50:30.940Z,46.77
2019-03-29T06:52:59.160Z,43.20
2019-03-29T06:55:27.459Z,43.30
2019-03-29T06:57:55.882Z,41.53
2019-03-29T07:00:25.511Z,51.65
2019-03-29T07:02:53.832Z,46.37
2019-03-29T07:05:22.212Z,46.07
2019-03-29T07:07:50.669Z,42.53
2019-03-29T07:10:19.131Z,41.77
2019-03-29T07:12:47.766Z,42.13
2019-03-29T07:15:18.487Z,41.47
2019-03-29T07:17:47.061Z,42.10
2019-03-29T07:20:15.586Z,41.60
2019-03-29T07:22:44.311Z,42.30
2019-03-29T07:25:13.016Z,36.07
2019-03-29T07:27:45.867Z,37.53
2019-03-29T07:30:12.429Z,42.73
2019-03-29T07:32:41.139Z,36.43
2019-03-29T07:35:09.964Z,37.90
2019-03-29T07:37:38.493Z,36.27
2019-03-29T07:40:07.012Z,35.80
2019-03-29T07:42:35.693Z,39.23
2019-03-29T07:45:04.727Z,36.20
2019-03-29T07:47:33.708Z,33.20
2019-03-29T07:50:02.520Z,35.97
2019-03-29T07:52:31.031Z,33.93
2019-03-29T07:54:59.463Z,34.30
2019-03-29T07:57:27.858Z,34.50
2019-03-29T07:59:56.276Z,37.53
2019-03-29T08:02:24.795Z,29.50
2019-03-29T08:04:53.575Z,34.37
2019-03-29T08:07:27.605Z,30.03
2019-03-29T08:09:52.350Z,29.97
2019-03-29T08:12:22.488Z,30.83
2019-03-29T08:14:51.156Z,34.27
2019-03-29T08:17:19.868Z,28.67
2019-03-29T08:20:05.345Z,26.43
2019-03-29T08:22:18.796Z,27.30
2019-03-29T08:24:47.389Z,28.67
2019-03-29T08:27:15.987Z,33.00
2019-03-29T08:29:45.778Z,28.60
2019-03-29T08:32:14.430Z,29.90
2019-03-29T08:34:43.350Z,26.87
2019-03-29T08:37:12.232Z,25.40
2019-03-29T08:39:41.135Z,32.33
2019-03-29T08:42:09.739Z,25.10
2019-03-29T08:44:38.550Z,24.07
2019-03-29T08:47:07.585Z,24.57
2019-03-29T08:49:36.413Z,25.20
2019-03-29T08:52:05.323Z,24.93
2019-03-29T08:54:33.808Z,24.97
2019-03-29T08:57:02.565Z,25.13
2019-03-29T08:59:31.178Z,24.63
2019-03-29T09:01:59.774Z,23.90
2019-03-29T09:04:28.428Z,24.30
2019-03-29T09:06:56.917Z,27.53
2019-03-29T09:09:25.255Z,26.13
2019-03-29T09:11:53.589Z,28.20
2019-03-29T09:14:22.175Z,26.27
2019-03-29T09:16:50.534Z,23.33
2019-03-29T09:19:18.900Z,25.03
2019-03-29T09:21:47.220Z,25.47
2019-03-29T09:24:21.756Z,22.37
2019-03-29T09:26:45.567Z,20.53
2019-03-29T09:29:13.902Z,22.13
2019-03-29T09:31:42.209Z,21.00
2019-03-29T09:34:10.489Z,20.93
2019-03-29T09:36:39.241Z,20.20
2019-03-29T09:39:07.748Z,20.50
2019-03-29T09:41:37.448Z,20.67
2019-03-29T09:44:05.907Z,15.87
2019-03-29T09:46:34.752Z,17.27
2019-03-29T09:49:03.293Z,17.13
2019-03-29T09:51:31.757Z,15.87
2019-03-29T09:54:00.151Z,17.83
2019-03-29T09:56:38.581Z,11.03
2019-03-29T09:59:01.932Z,12.33
2019-03-29T10:01:30.288Z,14.20
2019-03-29T10:03:58.875Z,15.37
2019-03-29T10:06:27.441Z,11.83
2019-03-29T10:08:55.786Z,14.80
2019-03-29T10:11:25.253Z,13.93
2019-03-29T10:13:53.631Z,12.07
2019-03-29T10:16:25.728Z,15.40
2019-03-29T10:18:52.672Z,12.70
2019-03-29T10:21:21.254Z,10.03
2019-03-29T10:23:50.366Z,10.37
2019-03-29T10:26:22.130Z,13.07
2019-03-29T10:28:50.720Z,10.90
2019-03-29T10:31:31.543Z,11.33
2019-03-29T10:33:49.499Z,7.83
2019-03-29T10:36:18.061Z,7.90
2019-03-29T10:38:49.928Z,8.90
2019-03-29T10:41:18.697Z,6.43
2019-03-29T10:43:47.576Z,3.10
2019-03-29T10:46:16.258Z,2.73
2019-03-29T10:48:44.584Z,7.13
2019-03-29T10:51:14.638Z,7.90
2019-03-29T10:53:43.220Z,5.80
2019-03-29T10:56:11.559Z,5.13
2019-03-29T10:58:40.609Z,3.93
2019-03-29T11:01:08.954Z,4.37
2019-03-29T11:03:37.353Z,7.50
2019-03-29T11:06:05.606Z,3.70
2019-03-29T11:08:33.975Z,5.00
2019-03-29T11:11:02.267Z,5.97
2019-03-29T11:13:30.531Z,4.40
2019-03-29T11:15:58.851Z,6.47
2019-03-29T11:18:29.362Z,7.13
2019-03-29T11:20:57.672Z,7.20
2019-03-29T11:23:26.141Z,9.63
2019-03-29T11:25:55.081Z,4.83
2019-03-29T11:28:23.425Z,5.83
2019-03-29T11:30:51.720Z,6.07
2019-03-29T11:33:20.082Z,9.70
2019-03-29T11:35:48.389Z,7.70
2019-03-29T11:38:16.637Z,6.57
2019-03-29T11:40:44.969Z,3.53
2019-03-29T11:43:25.981Z,4.13
2019-03-29T11:45:43.219Z,2.80
2019-03-29T11:48:11.629Z,4.63
2019-03-29T11:50:39.992Z,7.70
2019-03-29T11:53:08.385Z,7.20
2019-03-29T11:55:36.684Z,7.17
2019-03-29T11:58:04.975Z,8.47
2019-03-29T12:00:33.870Z,6.87
2019-03-29T12:03:04.112Z,8.73
2019-03-29T12:05:36.256Z,8.83
2019-03-29T12:08:05.126Z,10.60
2019-03-29T12:10:34.326Z,6.23
2019-03-29T12:13:03.647Z,6.90
2019-03-29T12:15:31.971Z,6.33
2019-03-29T12:18:00.370Z,9.97
2019-03-29T12:20:28.633Z,6.20
2019-03-29T12:22:56.905Z,6.07
2019-03-29T12:25:25.196Z,6.83
2019-03-29T12:27:53.522Z,8.47
2019-03-29T12:30:31.174Z,8.80
2019-03-29T12:32:51.774Z,9.83
2019-03-29T12:35:20.087Z,10.87
2019-03-29T12:37:48.440Z,11.97
2019-03-29T12:40:17.821Z,9.23
2019-03-29T12:42:46.604Z,9.03
2019-03-29T12:45:15.054Z,9.07
2019-03-29T12:47:43.397Z,9.57
2019-03-29T12:50:11.685Z,8.50
2019-03-29T12:52:40.774Z,8.40
2019-03-29T12:55:09.023Z,9.67
2019-03-29T12:57:38.933Z,12.00
2019-03-29T13:00:07.451Z,9.97
2019-03-29T13:02:35.837Z,11.77
2019-03-29T13:05:04.146Z,12.00
2019-03-29T13:07:32.425Z,12.27
2019-03-29T13:10:00.709Z,10.17
2019-03-29T13:12:28.980Z,9.77
2019-03-29T13:14:57.289Z,8.53
2019-03-29T13:17:28.425Z,8.30
2019-03-29T13:19:55.665Z,11.63
2019-03-29T13:22:24.049Z,8.93
2019-03-29T13:24:52.502Z,11.23
2019-03-29T13:27:20.796Z,8.20
2019-03-29T13:29:49.185Z,8.73
2019-03-29T13:32:17.519Z,8.70
2019-03-29T13:34:45.814Z,9.67
2019-03-29T13:37:14.177Z,10.60
2019-03-29T13:39:42.724Z,8.17
2019-03-29T13:42:11.073Z,9.87
2019-03-29T13:44:39.307Z,11.80
2019-03-29T13:47:07.637Z,7.73
2019-03-29T13:49:36.044Z,9.20
2019-03-29T13:52:04.568Z,8.77
2019-03-29T13:54:33.135Z,10.80
2019-03-29T13:57:01.835Z,9.00
2019-03-29T13:59:31.793Z,7.13
2019-03-29T14:02:00.483Z,6.77
2019-03-29T14:04:28.838Z,6.63
2019-03-29T14:06:57.486Z,6.03
2019-03-29T14:09:29.151Z,8.70
2019-03-29T14:11:57.059Z,9.40
2019-03-29T14:14:37.583Z,9.23
2019-03-29T14:16:56.435Z,6.90
2019-03-29T14:19:25.898Z,6.17
2019-03-29T14:21:54.409Z,6.83
2019-03-29T14:24:25.421Z,6.00
2019-03-29T14:26:55.670Z,6.57
2019-03-29T14:29:24.023Z,6.20
2019-03-29T14:31:54.199Z,5.83
2019-03-29T14:34:22.326Z,5.30
2019-03-29T14:36:50.693Z,8.87
2019-03-29T14:39:19.151Z,7.73
2019-03-29T14:41:47.961Z,8.90
2019-03-29T14:44:16.190Z,6.03
2019-03-29T14:46:47.315Z,7.73
2019-03-29T14:49:15.680Z,9.00
2019-03-29T14:51:44.261Z,9.63
2019-03-29T14:54:12.593Z,8.10
2019-03-29T14:56:42.043Z,6.20
2019-03-29T14:59:10.659Z,8.30
2019-03-29T15:01:39.166Z,11.73
2019-03-29T15:04:08.005Z,6.47
2019-03-29T15:06:36.363Z,7.90
2019-03-29T15:09:07.605Z,5.83
2019-03-29T15:11:36.873Z,8.77
2019-03-29T15:14:05.662Z,10.20
2019-03-29T15:16:34.236Z,7.73
2019-03-29T15:19:02.589Z,6.43
2019-03-29T15:21:31.407Z,11.23
2019-03-29T15:24:00.797Z,8.13
2019-03-29T15:26:29.294Z,8.67
2019-03-29T15:28:57.678Z,12.77
2019-03-29T15:31:26.334Z,8.07
2019-03-29T15:33:55.801Z,7.53
2019-03-29T15:36:24.690Z,8.87
2019-03-29T15:38:53.136Z,10.23
2019-03-29T15:41:21.965Z,8.87
2019-03-29T15:43:50.940Z,9.73
2019-03-29T15:46:19.450Z,8.57
2019-03-29T15:48:48.345Z,8.03
2019-03-29T15:51:17.041Z,8.90
2019-03-29T15:53:45.679Z,10.13
2019-03-29T15:56:14.302Z,9.93
2019-03-29T15:58:44.538Z,9.43
2019-03-29T16:01:13.185Z,7.40
2019-03-29T16:03:41.565Z,10.83
2019-03-29T16:06:10.212Z,9.20
2019-03-29T16:08:38.644Z,7.03
2019-03-29T16:11:09.156Z,10.40
2019-03-29T16:13:37.444Z,9.03
2019-03-29T16:16:05.995Z,10.20
2019-03-29T16:18:34.704Z,7.63
2019-03-29T16:21:03.175Z,8.13
2019-03-29T16:24:09.075Z,9.83
2019-03-29T16:26:37.862Z,8.90
2019-03-29T16:29:06.214Z,10.93
2019-03-29T16:31:34.708Z,10.70
2019-03-29T16:34:03.292Z,10.73
2019-03-29T16:36:35.338Z,13.20
2019-03-29T16:39:04.492Z,10.83
2019-03-29T16:41:33.368Z,11.77
2019-03-29T16:44:02.145Z,8.87
2019-03-29T16:46:30.420Z,11.63
2019-03-29T16:48:59.248Z,16.47
2019-03-29T16:51:29.085Z,9.90
2019-03-29T16:53:58.817Z,12.23
2019-03-29T16:56:27.767Z,11.30
2019-03-29T16:58:56.408Z,10.10
2019-03-29T17:01:25.972Z,8.60
2019-03-29T17:03:54.528Z,10.77
2019-03-29T17:06:24.284Z,12.00
2019-03-29T17:08:54.713Z,11.27
2019-03-29T17:11:25.438Z,9.73
2019-03-29T17:13:53.822Z,9.23
2019-03-29T17:16:30.355Z,9.80
2019-03-29T17:18:53.372Z,14.17
2019-03-29T17:21:22.189Z,12.47
2019-03-29T17:23:52.627Z,8.93
2019-03-29T17:26:20.935Z,7.90
2019-03-29T17:28:49.650Z,10.43
2019-03-29T17:31:18.594Z,9.77
2019-03-29T17:33:47.914Z,9.07
2019-03-29T17:36:16.348Z,9.70
2019-03-29T17:38:44.631Z,11.57
2019-03-29T17:41:13.040Z,12.90
2019-03-29T17:43:41.557Z,8.93
2019-03-29T17:46:16.057Z,11.03
2019-03-29T17:48:39.988Z,11.77
2019-03-29T17:51:08.247Z,11.50
2019-03-29T17:53:36.479Z,10.53
2019-03-29T17:56:04.977Z,11.73
2019-03-29T17:58:33.284Z,12.97
2019-03-29T18:01:01.541Z,20.70
2019-03-29T18:03:29.765Z,14.57
2019-03-29T18:05:58.121Z,18.83
2019-03-29T18:08:26.441Z,15.83
2019-03-29T18:10:54.722Z,18.20
2019-03-29T18:13:22.992Z,17.57
2019-03-29T18:15:51.325Z,20.37
2019-03-29T18:18:19.639Z,17.67
2019-03-29T18:20:48.139Z,14.03
2019-03-29T18:23:16.557Z,17.27
2019-03-29T18:25:44.938Z,16.17
2019-03-29T18:28:13.180Z,18.00
2019-03-29T18:30:42.302Z,13.33
2019-03-29T18:33:12.078Z,19.27
2019-03-29T18:35:40.864Z,18.87
2019-03-29T18:38:09.948Z,17.93
2019-03-29T18:40:39.290Z,13.97
2019-03-29T18:43:07.789Z,17.77
2019-03-29T18:45:36.457Z,19.43
2019-03-29T18:48:05.033Z,20.07
2019-03-29T18:50:34.783Z,18.33
2019-03-29T18:53:03.375Z,16.48
2019-03-29T18:55:35.110Z,17.87
2019-03-29T18:58:05.855Z,17.37
2019-03-29T19:00:37.180Z,18.50
2019-03-29T19:03:12.119Z,16.67
2019-03-29T19:05:42.215Z,17.43
2019-03-29T19:08:10.701Z,16.10
2019-03-29T19:13:15.042Z,20.77
2019-03-29T19:14:58.891Z,16.70
2019-03-29T19:15:44.029Z,16.40
2019-03-29T19:18:12.947Z,21.07
2019-03-29T19:20:42.108Z,16.97
2019-03-29T19:23:10.581Z,21.70
2019-03-29T19:25:38.872Z,18.37
2019-03-29T19:28:07.129Z,18.47
2019-03-29T19:30:35.495Z,24.17
2019-03-29T19:33:03.763Z,22.00
2019-03-29T19:35:32.209Z,27.20
2019-03-29T19:38:00.504Z,22.90
2019-03-29T19:40:28.909Z,21.27
2019-03-29T19:42:58.204Z,23.03
2019-03-29T19:45:26.527Z,17.87
2019-03-29T19:47:54.871Z,19.93
2019-03-29T19:50:23.211Z,18.87
2019-03-29T19:52:51.634Z,17.30
2019-03-29T19:55:19.960Z,16.87
2019-03-29T19:57:51.093Z,18.00
2019-03-29T20:00:19.383Z,22.77
2019-03-29T20:02:47.784Z,21.67
2019-03-29T20:05:26.157Z,20.93
2019-03-29T20:07:57.964Z,20.30
2019-03-29T20:10:26.300Z,19.10
2019-03-29T20:12:55.084Z,24.53
2019-03-29T20:15:23.488Z,23.53
2019-03-29T20:18:28.966Z,18.87
2019-03-29T20:20:58.697Z,23.10
2019-03-29T20:23:27.746Z,24.90
2019-03-29T20:25:56.082Z,25.20
2019-03-29T20:28:24.495Z,24.80
2019-03-29T20:30:52.855Z,26.67
2019-03-29T20:33:21.258Z,22.83
2019-03-29T20:35:49.545Z,23.77
2019-03-29T20:38:17.848Z,27.22
2019-03-29T20:40:46.413Z,28.60
2019-03-29T20:43:14.885Z,23.20
2019-03-29T20:45:43.237Z,28.77
2019-03-29T20:48:11.563Z,23.57
2019-03-29T20:50:40.419Z,23.57
2019-03-29T20:53:08.779Z,22.97
2019-03-29T20:55:38.870Z,22.73
2019-03-29T20:58:07.340Z,26.73
2019-03-29T21:00:35.879Z,27.47
2019-03-29T21:03:04.489Z,29.47
2019-03-29T21:05:34.885Z,25.53
2019-03-29T21:08:03.709Z,28.98
2019-03-29T21:10:33.515Z,27.83
2019-03-29T21:13:02.293Z,28.50
2019-03-29T21:15:30.833Z,25.67
2019-03-29T21:18:02.511Z,26.13
2019-03-29T21:20:31.770Z,25.13
2019-03-29T21:23:00.759Z,25.37
2019-03-29T21:25:29.175Z,24.77
2019-03-29T21:27:57.479Z,26.33
2019-03-29T21:30:25.984Z,26.27
2019-03-29T21:32:54.604Z,27.30
2019-03-29T21:35:23.000Z,24.63
2019-03-29T21:37:51.410Z,26.27
2019-03-29T21:40:21.019Z,26.97
2019-03-29T21:42:50.048Z,28.67
2019-03-29T21:45:28.414Z,31.17
2019-03-29T21:48:01.843Z,32.07
2019-03-29T21:50:18.691Z,27.90
2019-03-29T21:52:47.469Z,29.07
2019-03-29T21:55:15.866Z,28.97
2019-03-29T21:57:44.278Z,29.27
2019-03-29T22:00:12.708Z,27.33
2019-03-29T22:02:40.977Z,26.87
2019-03-29T22:05:10.491Z,28.53
2019-03-29T22:07:39.054Z,28.87
2019-03-29T22:10:07.857Z,25.90
2019-03-29T22:12:36.168Z,25.47
2019-03-29T22:15:09.661Z,23.23
2019-03-29T22:17:38.854Z,19.13
2019-03-29T22:20:07.560Z,19.13
2019-03-29T22:22:35.883Z,17.47
2019-03-29T22:25:05.026Z,21.20
2019-03-29T22:27:33.452Z,19.27
2019-03-29T22:30:02.962Z,24.07
2019-03-29T22:32:35.178Z,24.57
2019-03-29T22:35:03.771Z,24.93
2019-03-29T22:37:32.364Z,24.90
2019-03-29T22:40:00.748Z,26.90
2019-03-29T22:42:29.125Z,29.27
2019-03-29T22:44:57.988Z,28.00
2019-03-29T22:47:30.023Z,28.70
2019-03-29T22:49:59.869Z,31.70
2019-03-29T22:52:29.874Z,34.23
2019-03-29T22:54:58.724Z,33.10
2019-03-29T22:57:28.414Z,35.37
2019-03-29T22:59:56.722Z,32.47
2019-03-29T23:02:25.173Z,29.97
2019-03-29T23:04:53.863Z,25.73
2019-03-29T23:07:22.278Z,25.70
2019-03-29T23:09:50.605Z,23.70
2019-03-29T23:12:18.920Z,24.33
2019-03-29T23:14:47.505Z,25.13
2019-03-29T23:17:19.019Z,23.53
2019-03-29T23:19:51.310Z,32.90
2019-03-29T23:22:19.850Z,29.00
2019-03-29T23:24:48.346Z,24.33
2019-03-29T23:27:16.807Z,40.00
2019-03-29T23:29:45.111Z,54.27
2019-03-29T23:32:15.106Z,48.17
2019-03-29T23:34:43.466Z,46.13
2019-03-29T23:37:11.921Z,50.30
2019-03-29T23:39:40.203Z,54.33
2019-03-29T23:42:08.742Z,20.23
2019-03-29T23:44:37.034Z,30.43
2019-03-29T23:47:05.364Z,40.50
2019-03-29T23:49:34.759Z,39.10
2019-03-29T23:52:03.221Z,29.43
2019-03-29T23:54:32.502Z,39.43
2019-03-29T23:57:02.047Z,39.43
2019-03-29T23:59:31.456Z,27.13
